ROMMA est une association bénévole à but non lucratif. Votre soutien est indispensable : ADHERER à ROMMA ou FAIRE un DON

Briord - (01, Ain)

Bugey (281 m)   Longitude: 05° 29' 13" E   Latitude: 45° 46' 37" N Station partenaire n°15
 

Détail journalier du     <<     >>

Température Precipitation Humidité Pression Vent Dir Rafale Dir. rafale Ensol.
Heure (°C) (mm) (%) (hPa) (km/h) (km/h) (min)
01:00 20.4055101205NE0
02:00 18.70611012010E0
03:00 17.6066101203N0
04:00 15.9072101202SE0
05:00 14.8076101203SE0
06:00 14.3076101202ESE0
07:00 13.8079101200---0
08:00 13.1081101300---0
09:00 13.2085101306NO0
10:00 14.9082101300---0
11:00 19.706610141SE6SE0
12:00 22.105610132SSE10SSE0
13:00 23.805710132O11O0
14:00 26.204610133O15OSO40
15:00 27.804310134ONO18NO30
16:00 28.504210136NO21O55
17:00 28.703910128NO24NNO60
18:00 28.603910128NO19ONO60
19:00 29.104110129NO24NNO60
20:00 28.9039101210NO26ONO60
21:00 27.604410129NO23N60
22:00 26.304510137NNO19NNE0
23:00 24.804910134NNO15NNO0
minuit 21.605810141NNE6NE0

Graphique du 18-07-2019

 

Serveur OMMA